Time;durP1;ratioP1;P1;durP2;ratioP2;P2;SDS_P1;SDS_P2;PMS_P1;PMS_P2;Temp;Humidity;BMP_temperature;BMP_pressure;BME280_temperature;BME280_humidity;BME280_pressure;Samples;Min_cycle;Max_cycle;Signal;HPM_P1;HPM_P2
2021/10/21 00:00:03;;;;;;;22.17;10.93;;;;;;;;;;5052130;28;20032;-86
2021/10/21 00:02:29;;;;;;;20.75;10.52;;;;;;;;;;5052233;28;20056;-88
2021/10/21 00:04:55;;;;;;;16.88;9.98;;;;;;;;;;5053273;28;20428;-86
2021/10/21 00:07:22;;;;;;;23.65;11.35;;;;;;;;;;5051959;28;20036;-87
2021/10/21 00:09:48;;;;;;;18.52;10.63;;;;;;;;;;5051783;28;20041;-87
2021/10/21 00:12:14;;;;;;;24.35;10.95;;;;;;;;;;5053666;28;20486;-87
2021/10/21 00:14:41;;;;;;;25.48;10.90;;;;;;;;;;5051825;28;20178;-87
2021/10/21 00:17:07;;;;;;;19.27;10.45;;;;;;;;;;5052591;28;20385;-87
2021/10/21 00:19:34;;;;;;;20.40;10.65;;;;;;;;;;5055847;28;20075;-86
2021/10/21 00:22:00;;;;;;;20.77;10.70;;;;;;;;;;5055674;28;20116;-86
2021/10/21 00:24:26;;;;;;;16.52;10.27;;;;;;;;;;5055736;28;20417;-87
2021/10/21 00:26:52;;;;;;;20.20;11.15;;;;;;;;;;5055378;28;20064;-86
2021/10/21 00:29:18;;;;;;;20.02;10.23;;;;;;;;;;5055538;28;20041;-87
2021/10/21 00:31:46;;;;;;;25.00;11.23;;;;;;;;;;5055486;28;20528;-86
2021/10/21 00:34:16;;;;;;;19.60;10.75;;;;;;;;;;5055576;28;20033;-87
2021/10/21 00:36:43;;;;;;;19.10;10.68;;;;;;;;;;5057467;28;20413;-87
2021/10/21 00:39:09;;;;;;;21.05;10.50;;;;;;;;;;5055407;28;20021;-87
2021/10/21 00:41:35;;;;;;;25.17;11.57;;;;;;;;;;5057181;28;20027;-87
2021/10/21 00:44:09;;;;;;;21.25;11.25;;;;;;;;;;5056929;28;20403;-87
2021/10/21 00:46:36;;;;;;;20.75;11.27;;;;;;;;;;5055364;28;20032;-87
2021/10/21 00:49:03;;;;;;;22.08;10.00;;;;;;;;;;5055374;28;20086;-86
2021/10/21 00:51:29;;;;;;;21.60;11.18;;;;;;;;;;5055090;28;20485;-87
2021/10/21 00:53:56;;;;;;;22.75;11.20;;;;;;;;;;5055237;28;20033;-86
2021/10/21 00:56:22;;;;;;;20.15;10.65;;;;;;;;;;5055117;28;20047;-85
2021/10/21 00:58:53;;;;;;;24.70;11.75;;;;;;;;;;5055047;28;20033;-87
2021/10/21 01:01:19;;;;;;;23.35;10.55;;;;;;;;;;5055061;28;20025;-87
2021/10/21 01:03:46;;;;;;;20.73;9.93;;;;;;;;;;5055025;28;20124;-87
2021/10/21 01:06:12;;;;;;;19.40;9.63;;;;;;;;;;5054756;28;20493;-87
2021/10/21 01:08:39;;;;;;;17.27;9.82;;;;;;;;;;5054885;28;20033;-87
2021/10/21 01:11:06;;;;;;;21.23;10.63;;;;;;;;;;5056169;28;20047;-87
2021/10/21 01:13:33;;;;;;;22.20;10.45;;;;;;;;;;5054860;28;20119;-86
2021/10/21 01:16:13;;;;;;;21.10;11.48;;;;;;;;;;5054753;28;20057;-86
2021/10/21 01:18:40;;;;;;;17.38;10.13;;;;;;;;;;5054699;28;20031;-86
2021/10/21 01:21:06;;;;;;;21.52;10.75;;;;;;;;;;5054911;28;20025;-87
2021/10/21 01:23:33;;;;;;;19.38;10.75;;;;;;;;;;5054606;28;20025;-86
2021/10/21 01:25:59;;;;;;;23.90;12.00;;;;;;;;;;5054377;28;20025;-87
2021/10/21 01:28:26;;;;;;;21.42;10.93;;;;;;;;;;5054394;28;20056;-86
2021/10/21 01:30:52;;;;;;;22.15;10.93;;;;;;;;;;5055700;28;20063;-86
2021/10/21 01:33:18;;;;;;;22.75;12.10;;;;;;;;;;5054542;28;20478;-86
2021/10/21 01:35:45;;;;;;;23.40;11.88;;;;;;;;;;5054440;28;20056;-86
2021/10/21 01:38:12;;;;;;;22.20;10.98;;;;;;;;;;5054318;28;20029;-86
2021/10/21 01:40:38;;;;;;;21.98;11.30;;;;;;;;;;5055566;28;20036;-87
2021/10/21 01:43:04;;;;;;;19.75;11.38;;;;;;;;;;5054075;28;20021;-86
2021/10/21 01:45:32;;;;;;;23.42;11.35;;;;;;;;;;5055945;28;20025;-85
2021/10/21 01:47:59;;;;;;;23.98;11.48;;;;;;;;;;5054046;28;20044;-87
2021/10/21 01:50:26;;;;;;;20.45;10.48;;;;;;;;;;5054136;28;20029;-87
2021/10/21 01:52:52;;;;;;;18.40;10.38;;;;;;;;;;5054058;28;20465;-87
2021/10/21 01:55:19;;;;;;;21.35;12.10;;;;;;;;;;5053948;28;20025;-86
2021/10/21 01:57:46;;;;;;;21.98;11.55;;;;;;;;;;5053914;28;20083;-86
2021/10/21 02:00:13;;;;;;;22.92;11.80;;;;;;;;;;5054060;28;20512;-87
2021/10/21 02:02:42;;;;;;;19.67;11.27;;;;;;;;;;5054002;28;20025;-87
2021/10/21 02:05:08;;;;;;;21.80;12.32;;;;;;;;;;5053962;28;20401;-87
2021/10/21 02:07:35;;;;;;;21.15;11.27;;;;;;;;;;5055479;28;20028;-87
2021/10/21 02:10:02;;;;;;;19.98;10.88;;;;;;;;;;5053786;28;20079;-87
2021/10/21 02:12:28;;;;;;;21.17;10.35;;;;;;;;;;5055667;28;20057;-87
2021/10/21 02:14:54;;;;;;;23.95;11.65;;;;;;;;;;5053697;28;20120;-86
2021/10/21 02:17:22;;;;;;;22.35;10.77;;;;;;;;;;5053644;28;20040;-87
2021/10/21 02:19:49;;;;;;;21.92;11.25;;;;;;;;;;5053759;28;20070;-86
2021/10/21 02:22:16;;;;;;;28.52;12.18;;;;;;;;;;5053584;28;20029;-86
2021/10/21 02:24:42;;;;;;;22.20;12.38;;;;;;;;;;5053772;28;20029;-86
2021/10/21 02:27:08;;;;;;;24.30;13.57;;;;;;;;;;5054820;28;20098;-86
2021/10/21 02:29:35;;;;;;;24.63;12.77;;;;;;;;;;5053571;28;20060;-86
2021/10/21 02:32:01;;;;;;;19.25;10.80;;;;;;;;;;5054527;28;20033;-86
2021/10/21 02:34:28;;;;;;;21.27;11.32;;;;;;;;;;5053587;28;20025;-86
2021/10/21 02:36:54;;;;;;;23.25;10.75;;;;;;;;;;5053576;28;20072;-87
2021/10/21 02:39:20;;;;;;;22.58;10.20;;;;;;;;;;5053100;28;20025;-87
2021/10/21 02:41:46;;;;;;;20.35;11.65;;;;;;;;;;5054291;28;20032;-88
2021/10/21 02:44:13;;;;;;;20.77;11.27;;;;;;;;;;5053297;28;20052;-87
2021/10/21 02:46:39;;;;;;;18.20;10.40;;;;;;;;;;5054620;28;20052;-86
2021/10/21 02:49:06;;;;;;;19.95;10.63;;;;;;;;;;5053199;28;20067;-87
2021/10/21 02:51:32;;;;;;;19.05;10.30;;;;;;;;;;5053045;28;20540;-87
2021/10/21 02:53:58;;;;;;;17.83;10.10;;;;;;;;;;5054822;28;20489;-87
2021/10/21 02:56:24;;;;;;;20.45;10.70;;;;;;;;;;5052931;28;20025;-87
2021/10/21 02:58:51;;;;;;;21.48;10.85;;;;;;;;;;5052994;28;20029;-87
2021/10/21 03:01:17;;;;;;;21.83;11.57;;;;;;;;;;5054884;28;20374;-86
2021/10/21 03:03:43;;;;;;;20.52;11.13;;;;;;;;;;5054696;28;20025;-86
2021/10/21 03:06:09;;;;;;;18.30;9.68;;;;;;;;;;5052970;28;20426;-85
2021/10/21 03:08:36;;;;;;;23.67;11.93;;;;;;;;;;5052716;28;20116;-87
2021/10/21 03:11:02;;;;;;;21.25;10.98;;;;;;;;;;5054048;28;20044;-87
2021/10/21 03:13:28;;;;;;;18.75;10.05;;;;;;;;;;5052699;28;20021;-86
2021/10/21 03:15:55;;;;;;;20.27;11.32;;;;;;;;;;5052773;28;20031;-87
2021/10/21 03:18:21;;;;;;;23.38;12.10;;;;;;;;;;5052686;28;20389;-86
2021/10/21 03:20:47;;;;;;;21.65;10.88;;;;;;;;;;5052694;28;20029;-87
2021/10/21 03:23:14;;;;;;;20.95;10.23;;;;;;;;;;5052872;28;20108;-87
2021/10/21 03:25:40;;;;;;;20.75;10.88;;;;;;;;;;5052641;28;20447;-88
2021/10/21 03:28:06;;;;;;;25.02;11.00;;;;;;;;;;5052432;28;20405;-87
2021/10/21 03:30:33;;;;;;;20.35;10.27;;;;;;;;;;5052838;28;20025;-87
2021/10/21 03:32:59;;;;;;;21.23;9.63;;;;;;;;;;5053924;28;20084;-87
2021/10/21 03:35:25;;;;;;;22.63;9.68;;;;;;;;;;5054370;28;20021;-88
2021/10/21 03:37:52;;;;;;;20.40;10.15;;;;;;;;;;5052896;28;20217;-87
2021/10/21 03:40:18;;;;;;;22.20;11.18;;;;;;;;;;5052730;28;20017;-89
2021/10/21 03:42:44;;;;;;;21.88;10.70;;;;;;;;;;5053865;28;20382;-87
2021/10/21 03:45:10;;;;;;;18.88;10.80;;;;;;;;;;5052451;28;20116;-89
2021/10/21 03:47:37;;;;;;;23.50;11.27;;;;;;;;;;5052632;28;20025;-87
2021/10/21 03:50:03;;;;;;;21.65;10.70;;;;;;;;;;5053726;28;20397;-87
2021/10/21 03:52:29;;;;;;;19.25;10.32;;;;;;;;;;5054096;28;20066;-88
2021/10/21 03:54:56;;;;;;;20.90;10.23;;;;;;;;;;5056595;28;20059;-87
2021/10/21 03:57:22;;;;;;;22.25;10.45;;;;;;;;;;5056408;28;20115;-88
2021/10/21 03:59:48;;;;;;;16.95;9.73;;;;;;;;;;5057776;28;20096;-87
2021/10/21 04:02:14;;;;;;;21.65;10.50;;;;;;;;;;5056580;28;20033;-88
2021/10/21 04:04:41;;;;;;;26.30;10.95;;;;;;;;;;5056820;28;20021;-88
2021/10/21 04:07:07;;;;;;;19.05;9.80;;;;;;;;;;5057508;28;20029;-89
2021/10/21 04:09:33;;;;;;;20.85;9.95;;;;;;;;;;5056233;28;20065;-87
2021/10/21 04:12:00;;;;;;;20.48;11.02;;;;;;;;;;5057601;28;20083;-88
2021/10/21 04:14:26;;;;;;;21.52;10.30;;;;;;;;;;5057609;28;20478;-88
2021/10/21 04:16:52;;;;;;;23.05;11.68;;;;;;;;;;5057305;28;20104;-88
2021/10/21 04:19:19;;;;;;;19.90;10.52;;;;;;;;;;5056310;28;20074;-88
2021/10/21 04:21:45;;;;;;;19.05;10.48;;;;;;;;;;5057371;28;20029;-88
2021/10/21 04:24:12;;;;;;;21.23;10.50;;;;;;;;;;5056005;28;20021;-89
2021/10/21 04:26:38;;;;;;;20.52;10.00;;;;;;;;;;5055812;28;20087;-88
2021/10/21 04:29:05;;;;;;;21.27;11.38;;;;;;;;;;5055981;28;20443;-88
2021/10/21 04:31:31;;;;;;;19.17;9.73;;;;;;;;;;5057263;28;20032;-87
2021/10/21 04:33:57;;;;;;;25.05;10.45;;;;;;;;;;5055968;28;20025;-85
2021/10/21 04:36:24;;;;;;;21.63;11.32;;;;;;;;;;5055456;28;20033;-86
2021/10/21 04:38:50;;;;;;;22.80;10.60;;;;;;;;;;5056634;28;20132;-87
2021/10/21 04:41:16;;;;;;;18.88;9.98;;;;;;;;;;5055506;28;20021;-87
2021/10/21 04:43:42;;;;;;;27.52;11.60;;;;;;;;;;5056583;28;20183;-86
2021/10/21 04:46:09;;;;;;;23.70;10.02;;;;;;;;;;5056920;28;20099;-85
2021/10/21 04:48:35;;;;;;;22.13;10.38;;;;;;;;;;5056855;28;20063;-86
2021/10/21 04:51:01;;;;;;;24.40;11.90;;;;;;;;;;5056441;28;20070;-86
2021/10/21 04:53:28;;;;;;;24.92;11.05;;;;;;;;;;5056296;28;20025;-86
2021/10/21 04:55:54;;;;;;;22.10;11.18;;;;;;;;;;5056304;28;20029;-86
2021/10/21 04:58:21;;;;;;;22.15;11.98;;;;;;;;;;5055023;28;20071;-86
2021/10/21 05:00:47;;;;;;;24.23;12.80;;;;;;;;;;5054927;28;20488;-85
2021/10/21 05:03:13;;;;;;;24.45;12.00;;;;;;;;;;5054316;28;20029;-86
2021/10/21 05:05:49;;;;;;;23.45;12.63;;;;;;;;;;5054028;28;20110;-94
2021/10/21 05:08:15;;;;;;;24.33;12.40;;;;;;;;;;5056140;28;20386;-94
2021/10/21 05:10:41;;;;;;;24.30;12.23;;;;;;;;;;5054881;28;20033;-89
2021/10/21 05:13:07;;;;;;;23.38;12.07;;;;;;;;;;5055439;28;20025;-91
2021/10/21 05:15:33;;;;;;;21.80;10.95;;;;;;;;;;5055012;28;20025;-85
2021/10/21 05:18:01;;;;;;;26.92;13.10;;;;;;;;;;5054653;28;20025;-86
2021/10/21 05:20:27;;;;;;;24.92;12.88;;;;;;;;;;5054688;28;20111;-88
2021/10/21 05:22:53;;;;;;;23.92;12.30;;;;;;;;;;5056224;28;20021;-86
2021/10/21 05:25:19;;;;;;;24.75;12.35;;;;;;;;;;5054755;28;20063;-86
2021/10/21 05:27:45;;;;;;;33.47;12.93;;;;;;;;;;5054638;28;20047;-87
2021/10/21 05:30:11;;;;;;;24.27;12.63;;;;;;;;;;5056079;28;20032;-92
2021/10/21 05:32:38;;;;;;;26.40;11.10;;;;;;;;;;5054284;28;20025;-84
2021/10/21 05:35:04;;;;;;;21.45;11.00;;;;;;;;;;5054126;28;20028;-85
2021/10/21 05:37:30;;;;;;;25.05;11.45;;;;;;;;;;5054044;28;20029;-84
2021/10/21 05:39:57;;;;;;;24.60;11.20;;;;;;;;;;5055112;28;20021;-87
2021/10/21 05:42:24;;;;;;;29.88;12.60;;;;;;;;;;5055534;28;20082;-87
2021/10/21 05:44:50;;;;;;;24.30;13.45;;;;;;;;;;5055361;28;20025;-87
2021/10/21 05:47:16;;;;;;;31.38;13.15;;;;;;;;;;5055610;28;20036;-87
2021/10/21 05:49:43;;;;;;;27.35;12.38;;;;;;;;;;5054727;28;20474;-87
2021/10/21 05:52:09;;;;;;;22.33;11.32;;;;;;;;;;5055271;28;20036;-87
2021/10/21 05:54:35;;;;;;;24.30;12.60;;;;;;;;;;5055242;28;20029;-87
2021/10/21 05:57:01;;;;;;;27.77;12.77;;;;;;;;;;5055173;28;20104;-86
2021/10/21 05:59:28;;;;;;;20.00;10.77;;;;;;;;;;5055032;28;20025;-87
2021/10/21 06:01:54;;;;;;;24.23;12.85;;;;;;;;;;5044085;28;20025;-86
2021/10/21 06:04:21;;;;;;;35.63;12.70;;;;;;;;;;5034910;28;20105;-87
2021/10/21 06:06:47;;;;;;;29.55;14.57;;;;;;;;;;5033741;28;20049;-87
2021/10/21 06:09:13;;;;;;;24.48;13.23;;;;;;;;;;5033604;28;20041;-87
2021/10/21 06:11:39;;;;;;;21.42;12.15;;;;;;;;;;5034999;28;20013;-86
2021/10/21 06:14:06;;;;;;;26.05;12.80;;;;;;;;;;5033212;28;20478;-87
2021/10/21 06:16:33;;;;;;;23.23;12.02;;;;;;;;;;5033003;28;20049;-87
2021/10/21 06:18:59;;;;;;;27.88;12.43;;;;;;;;;;5033418;28;20034;-86
2021/10/21 06:21:27;;;;;;;25.63;13.40;;;;;;;;;;5033559;28;20021;-87
2021/10/21 06:23:53;;;;;;;20.65;11.82;;;;;;;;;;5033334;28;20029;-86
2021/10/21 06:26:20;;;;;;;26.25;12.57;;;;;;;;;;5033317;28;20414;-87
2021/10/21 06:28:51;;;;;;;23.08;12.57;;;;;;;;;;5033273;28;20033;-87
2021/10/21 06:31:17;;;;;;;22.98;12.73;;;;;;;;;;5034814;28;20113;-87
2021/10/21 06:33:43;;;;;;;23.85;12.13;;;;;;;;;;5033153;28;20029;-87
2021/10/21 06:36:10;;;;;;;22.98;11.27;;;;;;;;;;5033270;28;20034;-87
2021/10/21 06:38:37;;;;;;;22.33;11.35;;;;;;;;;;5034427;28;20423;-87
2021/10/21 06:41:09;;;;;;;22.20;11.88;;;;;;;;;;5038347;28;20026;-86
2021/10/21 06:43:35;;;;;;;22.42;12.05;;;;;;;;;;5036509;28;20029;-87
2021/10/21 06:46:01;;;;;;;23.10;11.73;;;;;;;;;;5032741;28;20072;-87
2021/10/21 06:48:28;;;;;;;25.20;11.43;;;;;;;;;;5034072;28;20036;-87
2021/10/21 06:50:54;;;;;;;21.45;11.98;;;;;;;;;;5032948;28;20451;-88
2021/10/21 06:53:20;;;;;;;23.95;13.07;;;;;;;;;;5032934;28;20026;-87
2021/10/21 06:55:46;;;;;;;23.15;10.80;;;;;;;;;;5032860;28;20087;-87
2021/10/21 06:58:12;;;;;;;25.73;13.98;;;;;;;;;;5032595;28;20500;-88
2021/10/21 07:00:40;;;;;;;30.98;14.48;;;;;;;;;;5033174;28;20037;-88
2021/10/21 07:03:06;;;;;;;21.85;12.68;;;;;;;;;;5052836;28;20025;-91
2021/10/21 07:05:38;;;;;;;25.45;14.32;;;;;;;;;;5052815;28;20029;-88
2021/10/21 07:08:05;;;;;;;31.92;13.77;;;;;;;;;;5053860;28;20385;-87
2021/10/21 07:10:31;;;;;;;20.60;13.00;;;;;;;;;;5052531;28;20035;-88
2021/10/21 07:12:58;;;;;;;22.08;15.88;;;;;;;;;;5052520;28;20024;-87
2021/10/21 07:15:24;;;;;;;23.38;14.38;;;;;;;;;;5053819;28;20401;-87
2021/10/21 07:17:50;;;;;;;18.40;12.63;;;;;;;;;;5052276;28;20064;-87
2021/10/21 07:20:16;;;;;;;16.02;10.52;;;;;;;;;;5052428;28;20055;-87
2021/10/21 07:22:43;;;;;;;13.90;9.18;;;;;;;;;;5052636;28;20025;-85
2021/10/21 07:25:09;;;;;;;10.35;6.32;;;;;;;;;;5052285;28;20021;-87
2021/10/21 07:27:36;;;;;;;11.70;5.85;;;;;;;;;;5054116;28;20482;-87
2021/10/21 07:30:02;;;;;;;9.73;5.00;;;;;;;;;;5053490;28;20052;-88
2021/10/21 07:32:28;;;;;;;7.88;4.75;;;;;;;;;;5052503;28;20025;-85
2021/10/21 07:34:54;;;;;;;10.15;5.00;;;;;;;;;;5051997;28;20028;-86
2021/10/21 07:37:21;;;;;;;10.38;5.45;;;;;;;;;;5052165;28;20029;-85
2021/10/21 07:39:48;;;;;;;7.18;4.43;;;;;;;;;;5053540;28;20024;-83
2021/10/21 07:42:14;;;;;;;5.88;4.05;;;;;;;;;;5052163;28;20090;-93
2021/10/21 07:44:41;;;;;;;6.57;4.07;;;;;;;;;;5052387;28;20410;-91
2021/10/21 07:47:07;;;;;;;5.57;3.60;;;;;;;;;;5052229;28;20032;-89
2021/10/21 07:49:33;;;;;;;8.10;4.68;;;;;;;;;;5053832;28;20037;-86
2021/10/21 07:52:02;;;;;;;7.35;4.63;;;;;;;;;;5055391;28;20029;-87
2021/10/21 07:54:29;;;;;;;8.93;4.70;;;;;;;;;;5051970;28;20029;-89
2021/10/21 07:56:56;;;;;;;10.02;4.60;;;;;;;;;;5052376;28;20021;-87
2021/10/21 07:59:23;;;;;;;6.82;4.40;;;;;;;;;;5051954;28;20143;-88
2021/10/21 08:01:49;;;;;;;7.82;4.28;;;;;;;;;;5051762;28;20377;-87
2021/10/21 08:04:15;;;;;;;7.28;4.45;;;;;;;;;;5052711;28;20363;-87
2021/10/21 08:06:44;;;;;;;6.45;3.53;;;;;;;;;;5051998;28;20044;-89
2021/10/21 08:09:10;;;;;;;8.93;3.80;;;;;;;;;;5051933;28;20044;-87
2021/10/21 08:11:37;;;;;;;7.10;3.97;;;;;;;;;;5051558;28;20111;-89
2021/10/21 08:14:03;;;;;;;7.97;3.88;;;;;;;;;;5051496;28;20426;-88
2021/10/21 08:16:29;;;;;;;9.50;3.10;;;;;;;;;;5051866;28;20112;-87
2021/10/21 08:18:55;;;;;;;6.40;3.70;;;;;;;;;;5051852;28;20071;-88
2021/10/21 08:21:21;;;;;;;5.28;3.63;;;;;;;;;;5053022;28;20418;-87
2021/10/21 08:23:50;;;;;;;8.73;3.10;;;;;;;;;;5051619;28;20493;-88
2021/10/21 08:26:16;;;;;;;5.05;3.00;;;;;;;;;;5051873;28;20045;-89
2021/10/21 08:28:46;;;;;;;12.50;3.50;;;;;;;;;;5051548;28;20071;-87
2021/10/21 08:31:12;;;;;;;5.70;3.75;;;;;;;;;;5051663;28;20025;-88
2021/10/21 08:33:38;;;;;;;6.28;3.28;;;;;;;;;;5051323;28;20115;-87
2021/10/21 08:36:11;;;;;;;7.50;3.30;;;;;;;;;;5053506;28;20021;-88
2021/10/21 08:38:38;;;;;;;5.88;3.10;;;;;;;;;;5057129;28;20047;-87
2021/10/21 08:41:06;;;;;;;4.50;3.00;;;;;;;;;;5055087;28;20028;-87
2021/10/21 08:43:32;;;;;;;4.18;2.50;;;;;;;;;;5056639;28;20025;-90
2021/10/21 08:46:00;;;;;;;4.95;2.45;;;;;;;;;;5054686;28;20049;-89
2021/10/21 08:48:27;;;;;;;5.85;2.97;;;;;;;;;;5055440;28;20025;-88
2021/10/21 08:50:54;;;;;;;4.93;2.92;;;;;;;;;;5055871;28;20120;-89
2021/10/21 08:53:20;;;;;;;4.63;2.83;;;;;;;;;;5055057;28;20025;-88
2021/10/21 08:55:50;;;;;;;3.97;2.60;;;;;;;;;;5055022;28;20534;-88
2021/10/21 08:58:16;;;;;;;4.45;2.78;;;;;;;;;;5054994;28;20021;-88
2021/10/21 09:00:42;;;;;;;8.38;2.72;;;;;;;;;;5054945;28;20064;-91
2021/10/21 09:03:16;;;;;;;4.72;3.03;;;;;;;;;;5056342;28;20028;-89
2021/10/21 09:05:55;;;;;;;4.00;2.58;;;;;;;;;;5054856;28;20098;-92
2021/10/21 09:08:22;;;;;;;4.38;2.72;;;;;;;;;;5055009;28;20021;-89
2021/10/21 09:10:50;;;;;;;4.43;2.75;;;;;;;;;;5054901;28;20028;-88
2021/10/21 09:13:20;;;;;;;8.65;2.50;;;;;;;;;;5054857;28;20466;-87
2021/10/21 09:15:50;;;;;;;5.47;2.65;;;;;;;;;;5054812;28;20060;-89
2021/10/21 09:18:17;;;;;;;9.05;2.90;;;;;;;;;;5056402;28;20028;-88
2021/10/21 09:20:44;;;;;;;8.85;2.85;;;;;;;;;;5054557;28;20036;-90
2021/10/21 09:23:25;;;;;;;10.98;3.05;;;;;;;;;;5054404;28;20078;-88
2021/10/21 09:25:51;;;;;;;6.25;2.22;;;;;;;;;;5054406;28;20090;-88
2021/10/21 09:28:17;;;;;;;8.38;2.75;;;;;;;;;;5054546;28;20044;-88
2021/10/21 09:30:50;;;;;;;10.95;2.75;;;;;;;;;;5054488;28;20512;-87
2021/10/21 09:33:16;;;;;;;;;;;;;;;;;;5056664;28;20409;-87
2021/10/21 09:35:51;;;;;;;7.32;2.58;;;;;;;;;;5055755;28;19915;-87
2021/10/21 09:38:18;;;;;;;6.55;2.90;;;;;;;;;;5054633;28;20152;-88
2021/10/21 09:40:44;;;;;;;4.35;2.45;;;;;;;;;;5054581;28;20024;-89
2021/10/21 09:43:14;;;;;;;3.92;2.70;;;;;;;;;;5054262;28;20032;-89
2021/10/21 09:45:42;;;;;;;5.05;2.42;;;;;;;;;;5054196;28;20021;-88
2021/10/21 09:48:09;;;;;;;4.53;2.25;;;;;;;;;;5054213;28;20090;-88
2021/10/21 09:50:40;;;;;;;3.55;2.25;;;;;;;;;;5057730;28;20023;-87
2021/10/21 09:53:07;;;;;;;8.57;3.17;;;;;;;;;;5060352;28;20033;-88
2021/10/21 09:55:34;;;;;;;5.35;2.30;;;;;;;;;;5054761;28;20071;-88
2021/10/21 09:58:01;;;;;;;6.40;2.45;;;;;;;;;;5054570;28;20123;-88
2021/10/21 10:00:31;;;;;;;5.95;2.90;;;;;;;;;;5055563;28;20021;-88
2021/10/21 10:03:09;;;;;;;4.40;2.72;;;;;;;;;;5055230;28;20055;-87
2021/10/21 10:05:35;;;;;;;6.55;2.35;;;;;;;;;;5054159;28;20025;-88
2021/10/21 10:08:01;;;;;;;6.90;2.40;;;;;;;;;;5053850;28;20048;-88
2021/10/21 10:10:27;;;;;;;4.32;2.22;;;;;;;;;;5054310;28;20029;-87
2021/10/21 10:12:54;;;;;;;5.85;2.55;;;;;;;;;;5053789;28;20029;-87
2021/10/21 10:15:20;;;;;;;5.22;2.58;;;;;;;;;;5053692;28;20017;-86
2021/10/21 10:17:46;;;;;;;3.63;2.17;;;;;;;;;;5053770;28;20044;-87
2021/10/21 10:20:12;;;;;;;5.15;2.25;;;;;;;;;;5053438;28;20551;-87
2021/10/21 10:22:40;;;;;;;3.35;2.28;;;;;;;;;;5053660;28;20028;-87
2021/10/21 10:25:17;;;;;;;5.43;2.63;;;;;;;;;;5053462;28;20029;-87
2021/10/21 10:27:54;;;;;;;3.50;2.40;;;;;;;;;;5052813;28;20049;-86
2021/10/21 10:30:39;;;;;;;4.38;2.10;;;;;;;;;;5053310;28;20032;-88
2021/10/21 10:33:05;;;;;;;5.18;2.53;;;;;;;;;;5053284;28;20438;-90
2021/10/21 10:35:32;;;;;;;4.28;2.10;;;;;;;;;;5053139;28;20036;-88
2021/10/21 10:37:59;;;;;;;7.47;2.45;;;;;;;;;;5052943;28;20032;-89
2021/10/21 10:40:38;;;;;;;4.25;2.25;;;;;;;;;;5052959;28;20478;-88
2021/10/21 10:43:04;;;;;;;4.20;2.20;;;;;;;;;;5052861;28;20078;-91
2021/10/21 10:45:52;;;;;;;3.15;2.05;;;;;;;;;;5052963;28;20029;-88
2021/10/21 10:48:38;;;;;;;3.13;2.22;;;;;;;;;;5052933;28;20530;-88
2021/10/21 10:51:04;;;;;;;3.20;1.83;;;;;;;;;;5052759;28;20552;-91
2021/10/21 10:53:44;;;;;;;4.10;2.60;;;;;;;;;;5052900;28;20017;-87
2021/10/21 10:56:30;;;;;;;21.85;2.80;;;;;;;;;;5052757;28;20075;-87
2021/10/21 10:59:15;;;;;;;3.83;2.35;;;;;;;;;;5052439;28;20120;-88
2021/10/21 11:01:41;;;;;;;3.88;2.20;;;;;;;;;;5052263;28;20033;-89
2021/10/21 11:04:07;;;;;;;3.05;1.75;;;;;;;;;;5052645;28;20382;-87
2021/10/21 11:06:34;;;;;;;3.65;2.28;;;;;;;;;;5052738;28;20025;-90
2021/10/21 11:09:07;;;;;;;3.78;2.33;;;;;;;;;;5052667;28;20378;-87
2021/10/21 11:11:53;;;;;;;4.70;2.30;;;;;;;;;;5052663;28;20451;-88
2021/10/21 11:14:37;;;;;;;3.63;1.88;;;;;;;;;;5052466;28;20056;-88
2021/10/21 11:17:03;;;;;;;3.83;2.00;;;;;;;;;;5054052;28;20029;-88
2021/10/21 11:19:48;;;;;;;4.55;2.10;;;;;;;;;;5052416;28;20040;-87
2021/10/21 11:22:20;;;;;;;7.65;2.45;;;;;;;;;;5053584;28;20106;-88
2021/10/21 11:24:49;;;;;;;6.05;2.60;;;;;;;;;;5052177;28;20040;-91
2021/10/21 11:27:16;;;;;;;3.92;2.25;;;;;;;;;;5052849;28;20053;-87
2021/10/21 11:29:44;;;;;;;5.63;2.70;;;;;;;;;;5052308;28;20029;-87
2021/10/21 11:32:10;;;;;;;4.63;2.90;;;;;;;;;;5053884;28;20100;-90
2021/10/21 11:34:37;;;;;;;3.70;2.38;;;;;;;;;;5053891;28;20021;-89
2021/10/21 11:37:04;;;;;;;3.85;2.72;;;;;;;;;;5052481;28;20071;-86
2021/10/21 11:39:30;;;;;;;6.10;3.40;;;;;;;;;;5051549;28;20087;-88
2021/10/21 11:41:57;;;;;;;6.63;2.92;;;;;;;;;;5052856;28;20079;-88
2021/10/21 11:44:23;;;;;;;5.47;3.10;;;;;;;;;;5052257;28;20025;-87
2021/10/21 11:46:57;;;;;;;7.68;3.15;;;;;;;;;;5052138;28;20046;-88
2021/10/21 11:49:30;;;;;;;6.15;3.65;;;;;;;;;;5052056;28;20052;-87
2021/10/21 11:51:56;;;;;;;;;;;;;;;;;;5052810;28;20025;-87
2021/10/21 11:54:28;;;;;;;5.10;3.10;;;;;;;;;;5069460;28;19916;-87
2021/10/21 11:56:55;;;;;;;8.00;3.80;;;;;;;;;;5051971;28;20029;-87
2021/10/21 11:59:41;;;;;;;9.32;4.28;;;;;;;;;;5054425;28;20044;-87
2021/10/21 12:02:18;;;;;;;7.57;3.90;;;;;;;;;;5053107;28;20044;-89
2021/10/21 12:04:46;;;;;;;7.05;4.07;;;;;;;;;;5053361;28;20028;-88
2021/10/21 12:07:13;;;;;;;8.07;4.63;;;;;;;;;;5053319;28;20146;-88
2021/10/21 12:09:40;;;;;;;13.43;5.82;;;;;;;;;;5051962;28;20025;-88
2021/10/21 12:12:15;;;;;;;16.77;4.53;;;;;;;;;;5051632;28;20048;-88
2021/10/21 12:14:46;;;;;;;8.93;4.10;;;;;;;;;;5056730;28;20028;-88
2021/10/21 12:17:12;;;;;;;7.85;4.25;;;;;;;;;;5055839;28;20048;-89
2021/10/21 12:19:43;;;;;;;7.18;4.35;;;;;;;;;;5055615;28;20040;-88
2021/10/21 12:22:30;;;;;;;5.72;3.75;;;;;;;;;;5055788;28;20029;-87
2021/10/21 12:24:56;;;;;;;8.13;4.72;;;;;;;;;;5055719;28;20501;-88
2021/10/21 12:27:26;;;;;;;6.43;4.18;;;;;;;;;;5056829;28;20174;-89
2021/10/21 12:30:05;;;;;;;17.38;4.60;;;;;;;;;;5055482;28;20111;-88
2021/10/21 12:32:31;;;;;;;14.07;5.40;;;;;;;;;;5056893;28;20020;-88
2021/10/21 12:35:08;;;;;;;9.57;5.18;;;;;;;;;;5055667;28;20060;-86
2021/10/21 12:37:42;;;;;;;8.55;4.78;;;;;;;;;;5056773;28;20045;-86
2021/10/21 12:40:12;;;;;;;9.48;4.45;;;;;;;;;;5055754;28;20079;-87
2021/10/21 12:42:38;;;;;;;8.48;3.90;;;;;;;;;;5055393;28;20033;-87
2021/10/21 12:45:05;;;;;;;7.13;3.85;;;;;;;;;;5055294;28;20021;-87
2021/10/21 12:47:32;;;;;;;5.65;3.53;;;;;;;;;;5056528;28;20108;-87
2021/10/21 12:50:04;;;;;;;8.05;4.03;;;;;;;;;;5055133;28;20121;-87
2021/10/21 12:52:32;;;;;;;8.57;4.23;;;;;;;;;;5055188;28;20025;-90
2021/10/21 12:55:08;;;;;;;8.05;4.40;;;;;;;;;;5056364;28;20029;-91
2021/10/21 12:57:50;;;;;;;10.93;4.30;;;;;;;;;;5055313;28;20025;-87
2021/10/21 13:00:40;;;;;;;7.75;3.78;;;;;;;;;;5055164;28;20116;-87
2021/10/21 13:03:12;;;;;;;6.90;3.42;;;;;;;;;;5054760;28;20060;-86
2021/10/21 13:05:39;;;;;;;9.63;3.72;;;;;;;;;;5055820;28;20478;-85
2021/10/21 13:08:07;;;;;;;7.22;3.42;;;;;;;;;;5055655;28;20437;-87
2021/10/21 13:10:33;;;;;;;6.88;3.72;;;;;;;;;;5054854;28;20033;-86
2021/10/21 13:12:59;;;;;;;5.78;3.15;;;;;;;;;;5054884;28;20031;-86
2021/10/21 13:15:25;;;;;;;7.40;3.28;;;;;;;;;;5054715;28;20029;-86
2021/10/21 13:17:52;;;;;;;5.05;3.22;;;;;;;;;;5055742;28;20063;-86
2021/10/21 13:20:21;;;;;;;5.25;3.20;;;;;;;;;;5055772;28;20090;-87
2021/10/21 13:22:47;;;;;;;6.95;3.22;;;;;;;;;;5054451;28;20019;-86
2021/10/21 13:25:14;;;;;;;6.75;2.97;;;;;;;;;;5054173;28;20029;-90
2021/10/21 13:27:41;;;;;;;8.93;3.15;;;;;;;;;;5054480;28;20113;-90
2021/10/21 13:30:08;;;;;;;10.25;2.78;;;;;;;;;;5053484;28;20485;-90
2021/10/21 13:32:35;;;;;;;8.80;3.72;;;;;;;;;;5053667;28;20549;-86
2021/10/21 13:35:01;;;;;;;6.95;3.72;;;;;;;;;;5054500;28;20029;-87
2021/10/21 13:37:28;;;;;;;8.30;1.33;;;;;;;;;;5054552;28;20028;-87
2021/10/21 13:39:54;;;;;;;10.90;3.65;;;;;;;;;;5052735;28;20036;-88
2021/10/21 13:42:20;;;;;;;6.20;1.40;;;;;;;;;;5052960;28;20017;-91
2021/10/21 13:44:46;;;;;;;5.97;0.88;;;;;;;;;;5050513;28;20112;-87
2021/10/21 13:47:12;;;;;;;1.55;0.63;;;;;;;;;;5054171;28;20032;-87
2021/10/21 13:49:40;;;;;;;7.80;0.90;;;;;;;;;;5053941;28;20622;-86
2021/10/21 13:52:07;;;;;;;5.28;0.77;;;;;;;;;;5053218;28;20052;-86
2021/10/21 13:54:33;;;;;;;9.18;0.90;;;;;;;;;;5051891;28;20025;-85
2021/10/21 13:57:00;;;;;;;2.35;0.80;;;;;;;;;;5052509;28;20429;-89
2021/10/21 13:59:26;;;;;;;3.83;1.15;;;;;;;;;;5034893;28;20393;-87
2021/10/21 14:01:53;;;;;;;10.57;1.40;;;;;;;;;;5033800;28;20025;-88
2021/10/21 14:04:19;;;;;;;5.60;1.40;;;;;;;;;;5033792;28;20033;-88
2021/10/21 14:06:45;;;;;;;3.53;0.70;;;;;;;;;;5033966;28;20028;-87
2021/10/21 14:09:12;;;;;;;5.50;0.93;;;;;;;;;;5035297;28;20031;-87
2021/10/21 14:11:38;;;;;;;4.60;0.75;;;;;;;;;;5033778;28;20028;-88
2021/10/21 14:14:07;;;;;;;25.98;2.17;;;;;;;;;;5033953;28;20461;-87
2021/10/21 14:16:34;;;;;;;27.55;3.60;;;;;;;;;;5034036;28;20022;-86
2021/10/21 14:19:02;;;;;;;41.30;6.50;;;;;;;;;;5033982;28;20124;-87
2021/10/21 14:21:28;;;;;;;80.78;10.52;;;;;;;;;;5034341;28;20363;-88
2021/10/21 14:23:54;;;;;;;3.80;0.77;;;;;;;;;;5050932;28;20489;-87
2021/10/21 14:26:21;;;;;;;5.03;0.88;;;;;;;;;;5052728;28;20037;-86
2021/10/21 14:28:47;;;;;;;8.68;0.80;;;;;;;;;;5052861;28;20041;-87
2021/10/21 14:31:13;;;;;;;4.28;0.60;;;;;;;;;;5053633;28;20478;-89
2021/10/21 14:33:40;;;;;;;4.40;0.70;;;;;;;;;;5053814;28;20118;-87